sensor_id;sensor_type;location;lat;lon;timestamp;P1;durP1;ratioP1;P2;durP2;ratioP2
26177;SDS011;13924;47.670;10.310;2023-04-03T00:00:39;10.8;;;9.7;;
26177;SDS011;13924;47.670;10.310;2023-04-03T00:15:40;11.3;;;10.1;;
26177;SDS011;13924;47.670;10.310;2023-04-03T00:30:40;10.3;;;9.2;;
26177;SDS011;13924;47.670;10.310;2023-04-03T00:45:41;10.1;;;9.1;;
26177;SDS011;13924;47.670;10.310;2023-04-03T01:00:42;11.3;;;10.2;;
26177;SDS011;13924;47.670;10.310;2023-04-03T01:01:27;12.8;;;10.2;;
26177;SDS011;13924;47.670;10.310;2023-04-03T01:15:42;13.8;;;10.9;;
26177;SDS011;13924;47.670;10.310;2023-04-03T01:30:44;14.4;;;10.4;;
26177;SDS011;13924;47.670;10.310;2023-04-03T01:45:43;13.1;;;10.7;;
26177;SDS011;13924;47.670;10.310;2023-04-03T02:00:45;12.9;;;10.4;;
26177;SDS011;13924;47.670;10.310;2023-04-03T02:15:45;13.2;;;11.3;;
26177;SDS011;13924;47.670;10.310;2023-04-03T02:30:46;15.3;;;12.1;;
26177;SDS011;13924;47.670;10.310;2023-04-03T02:45:45;13.3;;;11.9;;
26177;SDS011;13924;47.670;10.310;2023-04-03T03:00:47;14.5;;;10.6;;
26177;SDS011;13924;47.670;10.310;2023-04-03T03:15:48;18.8;;;12.1;;
26177;SDS011;13924;47.670;10.310;2023-04-03T03:30:48;13.2;;;11.9;;
26177;SDS011;13924;47.670;10.310;2023-04-03T03:45:50;13.6;;;11.4;;
26177;SDS011;13924;47.670;10.310;2023-04-03T04:00:49;13.4;;;11.2;;
26177;SDS011;13924;47.670;10.310;2023-04-03T04:15:50;56.8;;;23.5;;
26177;SDS011;13924;47.670;10.310;2023-04-03T04:30:51;13.7;;;10.2;;
26177;SDS011;13924;47.670;10.310;2023-04-03T04:45:59;12.2;;;9.1;;
26177;SDS011;13924;47.670;10.310;2023-04-03T05:00:58;10.6;;;8.8;;
26177;SDS011;13924;47.670;10.310;2023-04-03T05:13:39;10.8;;;9.4;;
26177;SDS011;13924;47.670;10.310;2023-04-03T05:28:39;10.4;;;8.7;;
26177;SDS011;13924;47.670;10.310;2023-04-03T05:43:40;9.3;;;8.1;;
26177;SDS011;13924;47.670;10.310;2023-04-03T05:58:40;7.4;;;6.5;;
26177;SDS011;13924;47.670;10.310;2023-04-03T06:13:41;7.1;;;6.3;;
26177;SDS011;13924;47.670;10.310;2023-04-03T06:28:42;10.5;;;6.8;;
26177;SDS011;13924;47.670;10.310;2023-04-03T06:43:42;7.3;;;6.6;;
26177;SDS011;13924;47.670;10.310;2023-04-03T06:58:44;8.8;;;7.9;;
26177;SDS011;13924;47.670;10.310;2023-04-03T07:13:44;13.1;;;7.2;;
26177;SDS011;13924;47.670;10.310;2023-04-03T07:28:44;65.9;;;24.0;;
26177;SDS011;13924;47.670;10.310;2023-04-03T07:43:45;12.0;;;9.7;;
26177;SDS011;13924;47.670;10.310;2023-04-03T07:58:46;19.1;;;11.7;;
26177;SDS011;13924;47.670;10.310;2023-04-03T08:13:46;37.7;;;18.4;;
26177;SDS011;13924;47.670;10.310;2023-04-03T08:28:47;13.4;;;11.2;;
26177;SDS011;13924;47.670;10.310;2023-04-03T08:43:56;20.0;;;11.1;;
26177;SDS011;13924;47.670;10.310;2023-04-03T08:58:49;16.8;;;12.4;;
26177;SDS011;13924;47.670;10.310;2023-04-03T09:13:50;16.8;;;12.2;;
26177;SDS011;13924;47.670;10.310;2023-04-03T09:28:50;17.0;;;11.5;;
26177;SDS011;13924;47.670;10.310;2023-04-03T09:43:51;10.5;;;8.9;;
26177;SDS011;13924;47.670;10.310;2023-04-03T09:58:52;10.8;;;7.5;;
26177;SDS011;13924;47.670;10.310;2023-04-03T10:13:51;7.8;;;6.9;;
26177;SDS011;13924;47.670;10.310;2023-04-03T10:28:53;6.7;;;5.8;;
26177;SDS011;13924;47.670;10.310;2023-04-03T10:43:55;6.2;;;5.6;;
26177;SDS011;13924;47.670;10.310;2023-04-03T10:58:54;8.1;;;4.5;;
26177;SDS011;13924;47.670;10.310;2023-04-03T11:13:55;5.0;;;4.5;;
26177;SDS011;13924;47.670;10.310;2023-04-03T11:28:56;5.1;;;4.3;;
26177;SDS011;13924;47.670;10.310;2023-04-03T11:43:57;6.6;;;4.8;;
26177;SDS011;13924;47.670;10.310;2023-04-03T11:59:15;7.0;;;4.6;;
26177;SDS011;13924;47.670;10.310;2023-04-03T12:14:05;11.2;;;5.1;;
26177;SDS011;13924;47.670;10.310;2023-04-03T12:28:57;7.3;;;5.9;;
26177;SDS011;13924;47.670;10.310;2023-04-03T12:44:03;7.9;;;5.5;;
26177;SDS011;13924;47.670;10.310;2023-04-03T12:59:13;7.4;;;5.2;;
26177;SDS011;13924;47.670;10.310;2023-04-03T13:14:01;7.1;;;6.4;;
26177;SDS011;13924;47.670;10.310;2023-04-03T13:29:02;8.1;;;6.1;;
26177;SDS011;13924;47.670;10.310;2023-04-03T13:44:23;11.7;;;9.5;;
26177;SDS011;13924;47.670;10.310;2023-04-03T13:59:05;6.6;;;6.0;;
26177;SDS011;13924;47.670;10.310;2023-04-03T14:14:05;6.9;;;6.1;;
26177;SDS011;13924;47.670;10.310;2023-04-03T14:29:05;7.6;;;6.4;;
26177;SDS011;13924;47.670;10.310;2023-04-03T14:44:04;8.5;;;6.5;;
26177;SDS011;13924;47.670;10.310;2023-04-03T14:59:05;8.1;;;6.1;;
26177;SDS011;13924;47.670;10.310;2023-04-03T15:14:05;6.4;;;5.4;;
26177;SDS011;13924;47.670;10.310;2023-04-03T15:29:05;6.3;;;5.3;;
26177;SDS011;13924;47.670;10.310;2023-04-03T15:44:06;6.3;;;5.7;;
26177;SDS011;13924;47.670;10.310;2023-04-03T15:59:07;8.4;;;5.3;;
26177;SDS011;13924;47.670;10.310;2023-04-03T16:14:07;6.7;;;5.8;;
26177;SDS011;13924;47.670;10.310;2023-04-03T16:29:08;6.2;;;5.1;;
26177;SDS011;13924;47.670;10.310;2023-04-03T16:44:08;5.2;;;4.7;;
26177;SDS011;13924;47.670;10.310;2023-04-03T16:59:09;5.5;;;4.4;;
26177;SDS011;13924;47.670;10.310;2023-04-03T17:14:10;6.6;;;4.3;;
26177;SDS011;13924;47.670;10.310;2023-04-03T17:29:10;4.6;;;3.6;;
26177;SDS011;13924;47.670;10.310;2023-04-03T17:44:11;5.5;;;4.2;;
26177;SDS011;13924;47.670;10.310;2023-04-03T17:59:12;5.8;;;4.4;;
26177;SDS011;13924;47.670;10.310;2023-04-03T18:14:14;4.2;;;3.8;;
26177;SDS011;13924;47.670;10.310;2023-04-03T18:29:13;7.5;;;4.4;;
26177;SDS011;13924;47.670;10.310;2023-04-03T18:44:14;10.1;;;7.9;;
26177;SDS011;13924;47.670;10.310;2023-04-03T18:59:15;6.9;;;5.1;;
26177;SDS011;13924;47.670;10.310;2023-04-03T19:14:15;6.8;;;5.2;;
26177;SDS011;13924;47.670;10.310;2023-04-03T19:29:17;6.6;;;4.8;;
26177;SDS011;13924;47.670;10.310;2023-04-03T19:44:17;5.4;;;4.0;;
26177;SDS011;13924;47.670;10.310;2023-04-03T19:59:18;6.7;;;4.4;;
26177;SDS011;13924;47.670;10.310;2023-04-03T20:14:18;6.5;;;4.1;;
26177;SDS011;13924;47.670;10.310;2023-04-03T20:29:19;6.3;;;4.2;;
26177;SDS011;13924;47.670;10.310;2023-04-03T20:44:20;6.9;;;4.1;;
26177;SDS011;13924;47.670;10.310;2023-04-03T20:59:20;7.6;;;3.1;;
26177;SDS011;13924;47.670;10.310;2023-04-03T21:29:22;5.0;;;3.7;;
26177;SDS011;13924;47.670;10.310;2023-04-03T21:44:23;3.9;;;3.0;;
26177;SDS011;13924;47.670;10.310;2023-04-03T21:59:23;3.9;;;2.6;;
26177;SDS011;13924;47.670;10.310;2023-04-03T22:00:47;5.3;;;3.1;;
26177;SDS011;13924;47.670;10.310;2023-04-03T22:15:35;4.6;;;3.1;;
26177;SDS011;13924;47.670;10.310;2023-04-03T22:30:36;4.9;;;3.4;;
26177;SDS011;13924;47.670;10.310;2023-04-03T22:45:46;6.5;;;4.1;;
26177;SDS011;13924;47.670;10.310;2023-04-03T23:00:43;6.7;;;4.1;;
26177;SDS011;13924;47.670;10.310;2023-04-03T23:15:50;6.7;;;4.1;;
26177;SDS011;13924;47.670;10.310;2023-04-03T23:30:46;6.0;;;4.6;;
26177;SDS011;13924;47.670;10.310;2023-04-03T23:45:45;6.1;;;4.5;;
